sensor_id;sensor_type;location;lat;lon;timestamp;P1;durP1;ratioP1;P2;durP2;ratioP2
10216;SDS011;5152;59.674;16.838;2023-06-05T00:02:11;1.13;;;0.70;;
10216;SDS011;5152;59.674;16.838;2023-06-05T00:04:38;0.73;;;0.73;;
10216;SDS011;5152;59.674;16.838;2023-06-05T00:07:05;1.00;;;0.90;;
10216;SDS011;5152;59.674;16.838;2023-06-05T00:09:32;2.03;;;1.10;;
10216;SDS011;5152;59.674;16.838;2023-06-05T00:11:59;1.80;;;0.93;;
10216;SDS011;5152;59.674;16.838;2023-06-05T00:14:26;1.10;;;0.80;;
10216;SDS011;5152;59.674;16.838;2023-06-05T00:16:53;1.53;;;1.17;;
10216;SDS011;5152;59.674;16.838;2023-06-05T00:19:22;0.80;;;0.60;;
10216;SDS011;5152;59.674;16.838;2023-06-05T00:21:49;0.90;;;0.70;;
10216;SDS011;5152;59.674;16.838;2023-06-05T00:24:18;1.70;;;1.07;;
10216;SDS011;5152;59.674;16.838;2023-06-05T00:26:44;1.03;;;0.93;;
10216;SDS011;5152;59.674;16.838;2023-06-05T00:29:12;0.80;;;0.80;;
10216;SDS011;5152;59.674;16.838;2023-06-05T00:31:38;0.97;;;0.87;;
10216;SDS011;5152;59.674;16.838;2023-06-05T00:34:05;1.33;;;0.87;;
10216;SDS011;5152;59.674;16.838;2023-06-05T00:36:33;0.90;;;0.90;;
10216;SDS011;5152;59.674;16.838;2023-06-05T00:39:02;1.77;;;0.87;;
10216;SDS011;5152;59.674;16.838;2023-06-05T00:41:29;0.90;;;0.80;;
10216;SDS011;5152;59.674;16.838;2023-06-05T00:43:56;0.73;;;0.73;;
10216;SDS011;5152;59.674;16.838;2023-06-05T00:46:23;0.77;;;0.73;;
10216;SDS011;5152;59.674;16.838;2023-06-05T00:48:50;1.00;;;0.90;;
10216;SDS011;5152;59.674;16.838;2023-06-05T00:51:17;1.00;;;0.83;;
10216;SDS011;5152;59.674;16.838;2023-06-05T00:53:45;1.00;;;1.00;;
10216;SDS011;5152;59.674;16.838;2023-06-05T00:56:13;1.23;;;1.10;;
10216;SDS011;5152;59.674;16.838;2023-06-05T00:58:42;1.87;;;1.10;;
10216;SDS011;5152;59.674;16.838;2023-06-05T01:01:09;1.30;;;0.87;;
10216;SDS011;5152;59.674;16.838;2023-06-05T01:03:37;1.37;;;0.90;;
10216;SDS011;5152;59.674;16.838;2023-06-05T01:06:04;1.30;;;0.83;;
10216;SDS011;5152;59.674;16.838;2023-06-05T01:08:32;1.80;;;0.80;;
10216;SDS011;5152;59.674;16.838;2023-06-05T01:11:05;4.07;;;1.33;;
10216;SDS011;5152;59.674;16.838;2023-06-05T01:13:38;2.13;;;1.10;;
10216;SDS011;5152;59.674;16.838;2023-06-05T01:16:09;2.87;;;1.00;;
10216;SDS011;5152;59.674;16.838;2023-06-05T01:18:36;0.77;;;0.77;;
10216;SDS011;5152;59.674;16.838;2023-06-05T01:21:10;3.00;;;1.10;;
10216;SDS011;5152;59.674;16.838;2023-06-05T01:23:41;2.00;;;1.03;;
10216;SDS011;5152;59.674;16.838;2023-06-05T01:26:09;1.13;;;0.93;;
10216;SDS011;5152;59.674;16.838;2023-06-05T01:28:37;3.10;;;1.10;;
10216;SDS011;5152;59.674;16.838;2023-06-05T01:31:05;1.43;;;1.20;;
10216;SDS011;5152;59.674;16.838;2023-06-05T01:33:40;3.23;;;0.97;;
10216;SDS011;5152;59.674;16.838;2023-06-05T01:36:11;1.60;;;1.10;;
10216;SDS011;5152;59.674;16.838;2023-06-05T01:38:38;1.67;;;1.10;;
10216;SDS011;5152;59.674;16.838;2023-06-05T01:41:08;1.37;;;1.17;;
10216;SDS011;5152;59.674;16.838;2023-06-05T01:43:36;1.67;;;0.97;;
10216;SDS011;5152;59.674;16.838;2023-06-05T01:46:03;0.93;;;0.80;;
10216;SDS011;5152;59.674;16.838;2023-06-05T01:48:32;1.63;;;1.00;;
10216;SDS011;5152;59.674;16.838;2023-06-05T01:51:00;1.87;;;1.10;;
10216;SDS011;5152;59.674;16.838;2023-06-05T01:53:27;2.50;;;0.90;;
10216;SDS011;5152;59.674;16.838;2023-06-05T01:55:56;1.37;;;1.27;;
10216;SDS011;5152;59.674;16.838;2023-06-05T01:58:23;2.10;;;1.30;;
10216;SDS011;5152;59.674;16.838;2023-06-05T02:00:51;1.07;;;1.00;;
10216;SDS011;5152;59.674;16.838;2023-06-05T02:03:18;0.93;;;0.73;;
10216;SDS011;5152;59.674;16.838;2023-06-05T02:05:46;1.20;;;1.10;;
10216;SDS011;5152;59.674;16.838;2023-06-05T02:08:13;1.17;;;1.00;;
10216;SDS011;5152;59.674;16.838;2023-06-05T02:10:44;1.27;;;1.03;;
10216;SDS011;5152;59.674;16.838;2023-06-05T02:13:13;2.20;;;1.17;;
10216;SDS011;5152;59.674;16.838;2023-06-05T02:15:40;1.10;;;1.00;;
10216;SDS011;5152;59.674;16.838;2023-06-05T02:18:10;1.10;;;1.00;;
10216;SDS011;5152;59.674;16.838;2023-06-05T02:20:39;1.70;;;1.17;;
10216;SDS011;5152;59.674;16.838;2023-06-05T02:23:06;1.50;;;0.97;;
10216;SDS011;5152;59.674;16.838;2023-06-05T02:25:33;1.50;;;1.10;;
10216;SDS011;5152;59.674;16.838;2023-06-05T02:28:00;3.60;;;1.47;;
10216;SDS011;5152;59.674;16.838;2023-06-05T02:30:28;2.40;;;1.10;;
10216;SDS011;5152;59.674;16.838;2023-06-05T02:32:55;0.87;;;0.87;;
10216;SDS011;5152;59.674;16.838;2023-06-05T02:35:26;2.70;;;1.40;;
10216;SDS011;5152;59.674;16.838;2023-06-05T02:37:53;4.00;;;1.43;;
10216;SDS011;5152;59.674;16.838;2023-06-05T02:40:21;1.23;;;1.10;;
10216;SDS011;5152;59.674;16.838;2023-06-05T02:42:48;1.80;;;1.10;;
10216;SDS011;5152;59.674;16.838;2023-06-05T02:45:15;1.20;;;1.10;;
10216;SDS011;5152;59.674;16.838;2023-06-05T02:47:43;1.60;;;1.30;;
10216;SDS011;5152;59.674;16.838;2023-06-05T02:50:10;2.60;;;1.00;;
10216;SDS011;5152;59.674;16.838;2023-06-05T02:52:37;1.37;;;1.07;;
10216;SDS011;5152;59.674;16.838;2023-06-05T02:55:05;1.70;;;0.90;;
10216;SDS011;5152;59.674;16.838;2023-06-05T02:57:32;1.30;;;1.07;;
10216;SDS011;5152;59.674;16.838;2023-06-05T03:00:07;2.87;;;1.37;;
10216;SDS011;5152;59.674;16.838;2023-06-05T03:02:34;1.97;;;1.20;;
10216;SDS011;5152;59.674;16.838;2023-06-05T03:05:04;1.93;;;1.10;;
10216;SDS011;5152;59.674;16.838;2023-06-05T03:07:32;1.93;;;1.30;;
10216;SDS011;5152;59.674;16.838;2023-06-05T03:09:59;1.80;;;1.30;;
10216;SDS011;5152;59.674;16.838;2023-06-05T03:12:27;1.17;;;1.03;;
10216;SDS011;5152;59.674;16.838;2023-06-05T03:14:53;1.73;;;1.37;;
10216;SDS011;5152;59.674;16.838;2023-06-05T03:17:20;4.40;;;1.10;;
10216;SDS011;5152;59.674;16.838;2023-06-05T03:19:48;1.93;;;1.20;;
10216;SDS011;5152;59.674;16.838;2023-06-05T03:22:17;1.83;;;1.03;;
10216;SDS011;5152;59.674;16.838;2023-06-05T03:24:44;1.73;;;1.10;;
10216;SDS011;5152;59.674;16.838;2023-06-05T03:27:11;1.60;;;1.10;;
10216;SDS011;5152;59.674;16.838;2023-06-05T03:29:38;1.47;;;1.00;;
10216;SDS011;5152;59.674;16.838;2023-06-05T03:32:05;1.60;;;1.00;;
10216;SDS011;5152;59.674;16.838;2023-06-05T03:34:32;1.83;;;1.10;;
10216;SDS011;5152;59.674;16.838;2023-06-05T03:37:01;1.90;;;1.10;;
10216;SDS011;5152;59.674;16.838;2023-06-05T03:39:30;1.80;;;1.27;;
10216;SDS011;5152;59.674;16.838;2023-06-05T03:41:57;1.00;;;0.90;;
10216;SDS011;5152;59.674;16.838;2023-06-05T03:44:25;1.60;;;1.10;;
10216;SDS011;5152;59.674;16.838;2023-06-05T03:46:52;1.50;;;1.07;;
10216;SDS011;5152;59.674;16.838;2023-06-05T03:49:19;1.40;;;1.30;;
10216;SDS011;5152;59.674;16.838;2023-06-05T03:51:47;1.33;;;1.10;;
10216;SDS011;5152;59.674;16.838;2023-06-05T03:54:14;1.93;;;1.33;;
10216;SDS011;5152;59.674;16.838;2023-06-05T03:56:43;1.33;;;1.10;;
10216;SDS011;5152;59.674;16.838;2023-06-05T03:59:15;1.43;;;1.10;;
10216;SDS011;5152;59.674;16.838;2023-06-05T04:01:45;1.47;;;1.13;;
10216;SDS011;5152;59.674;16.838;2023-06-05T04:04:12;1.50;;;1.20;;
10216;SDS011;5152;59.674;16.838;2023-06-05T04:06:39;1.37;;;1.10;;
10216;SDS011;5152;59.674;16.838;2023-06-05T04:09:06;1.93;;;1.30;;
10216;SDS011;5152;59.674;16.838;2023-06-05T04:11:39;3.17;;;1.10;;
10216;SDS011;5152;59.674;16.838;2023-06-05T04:14:07;1.63;;;1.00;;
10216;SDS011;5152;59.674;16.838;2023-06-05T04:16:35;2.03;;;1.30;;
10216;SDS011;5152;59.674;16.838;2023-06-05T04:19:04;1.33;;;1.10;;
10216;SDS011;5152;59.674;16.838;2023-06-05T04:21:32;1.20;;;1.00;;
10216;SDS011;5152;59.674;16.838;2023-06-05T04:23:59;1.53;;;1.10;;
10216;SDS011;5152;59.674;16.838;2023-06-05T04:26:26;2.50;;;1.00;;
10216;SDS011;5152;59.674;16.838;2023-06-05T04:28:53;3.23;;;1.00;;
10216;SDS011;5152;59.674;16.838;2023-06-05T04:31:23;1.50;;;1.07;;
10216;SDS011;5152;59.674;16.838;2023-06-05T04:33:50;1.27;;;1.00;;
10216;SDS011;5152;59.674;16.838;2023-06-05T04:36:17;1.07;;;0.97;;
10216;SDS011;5152;59.674;16.838;2023-06-05T04:38:45;1.83;;;1.10;;
10216;SDS011;5152;59.674;16.838;2023-06-05T04:41:12;2.23;;;1.20;;
10216;SDS011;5152;59.674;16.838;2023-06-05T04:43:39;2.53;;;1.30;;
10216;SDS011;5152;59.674;16.838;2023-06-05T04:46:06;2.17;;;1.17;;
10216;SDS011;5152;59.674;16.838;2023-06-05T04:48:34;3.50;;;1.40;;
10216;SDS011;5152;59.674;16.838;2023-06-05T04:51:02;1.93;;;0.97;;
10216;SDS011;5152;59.674;16.838;2023-06-05T04:53:29;1.37;;;1.27;;
10216;SDS011;5152;59.674;16.838;2023-06-05T04:55:57;2.37;;;1.43;;
10216;SDS011;5152;59.674;16.838;2023-06-05T04:58:26;2.87;;;1.47;;
10216;SDS011;5152;59.674;16.838;2023-06-05T05:00:53;1.40;;;0.90;;
10216;SDS011;5152;59.674;16.838;2023-06-05T05:03:30;2.17;;;1.30;;
10216;SDS011;5152;59.674;16.838;2023-06-05T05:05:58;2.00;;;1.30;;
10216;SDS011;5152;59.674;16.838;2023-06-05T05:08:25;1.80;;;1.10;;
10216;SDS011;5152;59.674;16.838;2023-06-05T05:10:53;1.10;;;1.00;;
10216;SDS011;5152;59.674;16.838;2023-06-05T05:13:20;1.70;;;1.10;;
10216;SDS011;5152;59.674;16.838;2023-06-05T05:15:47;2.70;;;1.13;;
10216;SDS011;5152;59.674;16.838;2023-06-05T05:18:17;1.10;;;1.00;;
10216;SDS011;5152;59.674;16.838;2023-06-05T05:20:45;1.77;;;1.17;;
10216;SDS011;5152;59.674;16.838;2023-06-05T05:23:13;1.93;;;1.30;;
10216;SDS011;5152;59.674;16.838;2023-06-05T05:25:40;1.43;;;1.27;;
10216;SDS011;5152;59.674;16.838;2023-06-05T05:28:07;1.10;;;0.90;;
10216;SDS011;5152;59.674;16.838;2023-06-05T05:30:35;1.67;;;1.10;;
10216;SDS011;5152;59.674;16.838;2023-06-05T05:33:02;1.63;;;1.27;;
10216;SDS011;5152;59.674;16.838;2023-06-05T05:35:29;2.10;;;1.13;;
10216;SDS011;5152;59.674;16.838;2023-06-05T05:37:56;2.07;;;1.17;;
10216;SDS011;5152;59.674;16.838;2023-06-05T05:40:24;1.87;;;1.13;;
10216;SDS011;5152;59.674;16.838;2023-06-05T05:42:51;1.10;;;1.00;;
10216;SDS011;5152;59.674;16.838;2023-06-05T05:45:18;2.17;;;1.30;;
10216;SDS011;5152;59.674;16.838;2023-06-05T05:47:44;1.50;;;1.10;;
10216;SDS011;5152;59.674;16.838;2023-06-05T05:50:11;2.33;;;1.30;;
10216;SDS011;5152;59.674;16.838;2023-06-05T05:52:38;2.07;;;1.40;;
10216;SDS011;5152;59.674;16.838;2023-06-05T05:55:06;2.03;;;1.40;;
10216;SDS011;5152;59.674;16.838;2023-06-05T05:57:35;2.83;;;1.20;;
10216;SDS011;5152;59.674;16.838;2023-06-05T06:00:02;3.43;;;1.30;;
10216;SDS011;5152;59.674;16.838;2023-06-05T06:02:34;1.53;;;0.90;;
10216;SDS011;5152;59.674;16.838;2023-06-05T06:05:01;2.47;;;1.43;;
10216;SDS011;5152;59.674;16.838;2023-06-05T06:07:29;1.80;;;1.20;;
10216;SDS011;5152;59.674;16.838;2023-06-05T06:09:57;2.83;;;0.90;;
10216;SDS011;5152;59.674;16.838;2023-06-05T06:12:24;2.10;;;1.00;;
10216;SDS011;5152;59.674;16.838;2023-06-05T06:14:53;1.50;;;1.30;;
10216;SDS011;5152;59.674;16.838;2023-06-05T06:17:20;3.53;;;1.30;;
10216;SDS011;5152;59.674;16.838;2023-06-05T06:19:47;2.80;;;1.50;;
10216;SDS011;5152;59.674;16.838;2023-06-05T06:22:14;2.10;;;1.30;;
10216;SDS011;5152;59.674;16.838;2023-06-05T06:24:41;1.93;;;1.30;;
10216;SDS011;5152;59.674;16.838;2023-06-05T06:27:08;2.73;;;1.23;;
10216;SDS011;5152;59.674;16.838;2023-06-05T06:29:36;2.43;;;1.50;;
10216;SDS011;5152;59.674;16.838;2023-06-05T06:32:05;2.33;;;1.10;;
10216;SDS011;5152;59.674;16.838;2023-06-05T06:34:32;2.10;;;1.33;;
10216;SDS011;5152;59.674;16.838;2023-06-05T06:36:59;3.57;;;1.40;;
10216;SDS011;5152;59.674;16.838;2023-06-05T06:39:27;1.30;;;1.10;;
10216;SDS011;5152;59.674;16.838;2023-06-05T06:41:54;2.27;;;1.37;;
10216;SDS011;5152;59.674;16.838;2023-06-05T06:44:22;1.53;;;1.10;;
10216;SDS011;5152;59.674;16.838;2023-06-05T06:46:49;4.90;;;1.37;;
10216;SDS011;5152;59.674;16.838;2023-06-05T06:49:17;1.00;;;0.90;;
10216;SDS011;5152;59.674;16.838;2023-06-05T06:51:45;1.23;;;1.10;;
10216;SDS011;5152;59.674;16.838;2023-06-05T06:54:12;2.03;;;1.17;;
10216;SDS011;5152;59.674;16.838;2023-06-05T06:56:39;1.30;;;1.07;;
10216;SDS011;5152;59.674;16.838;2023-06-05T06:59:10;1.73;;;1.23;;
10216;SDS011;5152;59.674;16.838;2023-06-05T07:01:41;1.80;;;0.93;;
10216;SDS011;5152;59.674;16.838;2023-06-05T07:04:09;2.83;;;1.50;;
10216;SDS011;5152;59.674;16.838;2023-06-05T07:06:37;2.37;;;1.10;;
10216;SDS011;5152;59.674;16.838;2023-06-05T07:09:04;2.20;;;1.20;;
10216;SDS011;5152;59.674;16.838;2023-06-05T07:11:33;2.27;;;1.13;;
10216;SDS011;5152;59.674;16.838;2023-06-05T07:14:00;1.67;;;1.23;;
10216;SDS011;5152;59.674;16.838;2023-06-05T07:16:27;1.27;;;1.10;;
10216;SDS011;5152;59.674;16.838;2023-06-05T07:18:54;3.87;;;1.30;;
10216;SDS011;5152;59.674;16.838;2023-06-05T07:21:21;1.13;;;0.97;;
10216;SDS011;5152;59.674;16.838;2023-06-05T07:23:49;1.50;;;0.93;;
10216;SDS011;5152;59.674;16.838;2023-06-05T07:26:18;1.70;;;1.40;;
10216;SDS011;5152;59.674;16.838;2023-06-05T07:28:49;1.27;;;1.10;;
10216;SDS011;5152;59.674;16.838;2023-06-05T07:31:16;1.63;;;0.97;;
10216;SDS011;5152;59.674;16.838;2023-06-05T07:33:43;1.80;;;1.20;;
10216;SDS011;5152;59.674;16.838;2023-06-05T07:36:10;2.93;;;1.20;;
10216;SDS011;5152;59.674;16.838;2023-06-05T07:38:37;1.40;;;1.20;;
10216;SDS011;5152;59.674;16.838;2023-06-05T07:41:06;4.20;;;1.33;;
10216;SDS011;5152;59.674;16.838;2023-06-05T07:43:34;2.80;;;1.30;;
10216;SDS011;5152;59.674;16.838;2023-06-05T07:46:01;2.80;;;1.20;;
10216;SDS011;5152;59.674;16.838;2023-06-05T07:48:30;4.07;;;1.33;;
10216;SDS011;5152;59.674;16.838;2023-06-05T07:50:56;2.80;;;1.20;;
10216;SDS011;5152;59.674;16.838;2023-06-05T07:53:23;3.20;;;1.20;;
10216;SDS011;5152;59.674;16.838;2023-06-05T07:55:50;1.40;;;1.20;;
10216;SDS011;5152;59.674;16.838;2023-06-05T07:58:19;1.83;;;1.10;;
10216;SDS011;5152;59.674;16.838;2023-06-05T08:00:46;3.13;;;1.23;;
10216;SDS011;5152;59.674;16.838;2023-06-05T08:03:13;2.30;;;1.40;;
10216;SDS011;5152;59.674;16.838;2023-06-05T08:05:45;1.20;;;1.00;;
10216;SDS011;5152;59.674;16.838;2023-06-05T08:08:12;1.50;;;1.40;;
10216;SDS011;5152;59.674;16.838;2023-06-05T08:10:39;3.77;;;1.50;;
10216;SDS011;5152;59.674;16.838;2023-06-05T08:13:06;1.67;;;1.20;;
10216;SDS011;5152;59.674;16.838;2023-06-05T08:15:35;2.00;;;1.10;;
10216;SDS011;5152;59.674;16.838;2023-06-05T08:18:02;1.63;;;1.30;;
10216;SDS011;5152;59.674;16.838;2023-06-05T08:20:29;1.47;;;1.10;;
10216;SDS011;5152;59.674;16.838;2023-06-05T08:22:56;4.43;;;1.30;;
10216;SDS011;5152;59.674;16.838;2023-06-05T08:25:23;5.33;;;1.30;;
10216;SDS011;5152;59.674;16.838;2023-06-05T08:27:50;1.70;;;1.40;;
10216;SDS011;5152;59.674;16.838;2023-06-05T08:30:17;3.20;;;1.20;;
10216;SDS011;5152;59.674;16.838;2023-06-05T08:32:46;0.80;;;0.80;;
10216;SDS011;5152;59.674;16.838;2023-06-05T08:35:12;1.75;;;1.15;;
10216;SDS011;5152;59.674;16.838;2023-06-05T08:37:39;2.35;;;1.10;;
10216;SDS011;5152;59.674;16.838;2023-06-05T08:40:07;1.20;;;0.95;;
10216;SDS011;5152;59.674;16.838;2023-06-05T08:42:35;1.80;;;0.90;;
10216;SDS011;5152;59.674;16.838;2023-06-05T08:45:03;0.90;;;0.90;;
10216;SDS011;5152;59.674;16.838;2023-06-05T08:47:30;1.73;;;0.95;;
10216;SDS011;5152;59.674;16.838;2023-06-05T08:49:58;1.17;;;1.07;;
10216;SDS011;5152;59.674;16.838;2023-06-05T08:52:29;2.27;;;1.20;;
10216;SDS011;5152;59.674;16.838;2023-06-05T08:54:59;1.67;;;1.10;;
10216;SDS011;5152;59.674;16.838;2023-06-05T08:57:26;1.87;;;1.13;;
10216;SDS011;5152;59.674;16.838;2023-06-05T08:59:54;5.07;;;1.50;;
10216;SDS011;5152;59.674;16.838;2023-06-05T09:02:21;1.42;;;0.90;;
10216;SDS011;5152;59.674;16.838;2023-06-05T09:04:48;3.05;;;1.42;;
10216;SDS011;5152;59.674;16.838;2023-06-05T09:07:16;1.23;;;1.10;;
10216;SDS011;5152;59.674;16.838;2023-06-05T09:09:43;1.15;;;1.05;;
10216;SDS011;5152;59.674;16.838;2023-06-05T09:12:10;1.38;;;0.90;;
10216;SDS011;5152;59.674;16.838;2023-06-05T09:14:38;1.00;;;1.00;;
10216;SDS011;5152;59.674;16.838;2023-06-05T09:17:05;2.57;;;1.37;;
10216;SDS011;5152;59.674;16.838;2023-06-05T09:19:39;1.70;;;1.30;;
10216;SDS011;5152;59.674;16.838;2023-06-05T09:22:08;2.43;;;1.20;;
10216;SDS011;5152;59.674;16.838;2023-06-05T09:24:37;2.13;;;1.30;;
10216;SDS011;5152;59.674;16.838;2023-06-05T09:27:06;1.25;;;1.15;;
10216;SDS011;5152;59.674;16.838;2023-06-05T09:29:33;1.20;;;1.10;;
10216;SDS011;5152;59.674;16.838;2023-06-05T09:32:02;3.40;;;1.15;;
10216;SDS011;5152;59.674;16.838;2023-06-05T09:34:31;2.03;;;1.27;;
10216;SDS011;5152;59.674;16.838;2023-06-05T09:36:58;2.50;;;1.20;;
10216;SDS011;5152;59.674;16.838;2023-06-05T09:39:26;3.08;;;1.20;;
10216;SDS011;5152;59.674;16.838;2023-06-05T09:41:55;1.77;;;1.00;;
10216;SDS011;5152;59.674;16.838;2023-06-05T09:44:23;1.30;;;1.20;;
10216;SDS011;5152;59.674;16.838;2023-06-05T09:46:51;4.22;;;1.40;;
10216;SDS011;5152;59.674;16.838;2023-06-05T09:49:24;4.55;;;1.63;;
10216;SDS011;5152;59.674;16.838;2023-06-05T09:51:52;1.80;;;1.13;;
10216;SDS011;5152;59.674;16.838;2023-06-05T09:54:19;1.95;;;1.13;;
10216;SDS011;5152;59.674;16.838;2023-06-05T09:56:48;4.75;;;1.38;;
10216;SDS011;5152;59.674;16.838;2023-06-05T09:59:18;1.77;;;1.23;;
10216;SDS011;5152;59.674;16.838;2023-06-05T10:01:49;2.70;;;1.15;;
10216;SDS011;5152;59.674;16.838;2023-06-05T10:04:19;1.48;;;1.23;;
10216;SDS011;5152;59.674;16.838;2023-06-05T10:06:47;4.40;;;1.33;;
10216;SDS011;5152;59.674;16.838;2023-06-05T10:09:15;1.23;;;1.13;;
10216;SDS011;5152;59.674;16.838;2023-06-05T10:11:41;4.18;;;1.20;;
10216;SDS011;5152;59.674;16.838;2023-06-05T10:14:09;3.15;;;1.10;;
10216;SDS011;5152;59.674;16.838;2023-06-05T10:16:37;2.58;;;1.70;;
10216;SDS011;5152;59.674;16.838;2023-06-05T10:19:05;3.55;;;1.20;;
10216;SDS011;5152;59.674;16.838;2023-06-05T10:21:32;1.52;;;1.10;;
10216;SDS011;5152;59.674;16.838;2023-06-05T10:24:01;1.58;;;1.20;;
10216;SDS011;5152;59.674;16.838;2023-06-05T10:29:27;3.33;;;1.08;;
10216;SDS011;5152;59.674;16.838;2023-06-05T10:32:03;1.30;;;1.20;;
10216;SDS011;5152;59.674;16.838;2023-06-05T10:34:35;6.10;;;1.20;;
10216;SDS011;5152;59.674;16.838;2023-06-05T10:37:21;3.00;;;1.40;;
10216;SDS011;5152;59.674;16.838;2023-06-05T10:40:04;2.28;;;0.90;;
10216;SDS011;5152;59.674;16.838;2023-06-05T10:42:34;0.90;;;0.90;;
10216;SDS011;5152;59.674;16.838;2023-06-05T10:45:01;1.48;;;1.30;;
10216;SDS011;5152;59.674;16.838;2023-06-05T10:50:21;1.70;;;1.27;;
10216;SDS011;5152;59.674;16.838;2023-06-05T10:52:50;2.35;;;1.33;;
10216;SDS011;5152;59.674;16.838;2023-06-05T10:55:18;1.25;;;1.10;;
10216;SDS011;5152;59.674;16.838;2023-06-05T10:58:08;2.42;;;1.30;;
10216;SDS011;5152;59.674;16.838;2023-06-05T11:00:39;1.73;;;1.02;;
10216;SDS011;5152;59.674;16.838;2023-06-05T11:03:56;2.55;;;1.20;;
10216;SDS011;5152;59.674;16.838;2023-06-05T11:06:24;1.38;;;1.27;;
10216;SDS011;5152;59.674;16.838;2023-06-05T11:09:11;1.48;;;1.20;;
10216;SDS011;5152;59.674;16.838;2023-06-05T11:11:54;1.38;;;1.17;;
10216;SDS011;5152;59.674;16.838;2023-06-05T11:14:22;3.05;;;1.30;;
10216;SDS011;5152;59.674;16.838;2023-06-05T11:16:49;1.25;;;1.15;;
10216;SDS011;5152;59.674;16.838;2023-06-05T11:19:35;3.78;;;1.35;;
10216;SDS011;5152;59.674;16.838;2023-06-05T11:22:07;4.32;;;1.48;;
10216;SDS011;5152;59.674;16.838;2023-06-05T11:24:35;4.10;;;1.20;;
10216;SDS011;5152;59.674;16.838;2023-06-05T11:27:02;1.30;;;1.15;;
10216;SDS011;5152;59.674;16.838;2023-06-05T11:29:30;0.90;;;0.90;;
10216;SDS011;5152;59.674;16.838;2023-06-05T11:31:57;1.40;;;1.30;;
10216;SDS011;5152;59.674;16.838;2023-06-05T11:34:25;1.30;;;1.20;;
10216;SDS011;5152;59.674;16.838;2023-06-05T11:36:54;1.40;;;1.15;;
10216;SDS011;5152;59.674;16.838;2023-06-05T11:39:23;3.78;;;1.27;;
10216;SDS011;5152;59.674;16.838;2023-06-05T11:41:54;2.67;;;1.20;;
10216;SDS011;5152;59.674;16.838;2023-06-05T11:44:31;2.75;;;1.20;;
10216;SDS011;5152;59.674;16.838;2023-06-05T11:46:59;3.72;;;1.48;;
10216;SDS011;5152;59.674;16.838;2023-06-05T11:49:26;1.35;;;1.10;;
10216;SDS011;5152;59.674;16.838;2023-06-05T11:51:55;1.77;;;1.27;;
10216;SDS011;5152;59.674;16.838;2023-06-05T11:54:25;1.55;;;1.45;;
10216;SDS011;5152;59.674;16.838;2023-06-05T11:57:00;4.15;;;1.10;;
10216;SDS011;5152;59.674;16.838;2023-06-05T11:59:36;0.90;;;0.90;;
10216;SDS011;5152;59.674;16.838;2023-06-05T12:02:03;5.57;;;1.40;;
10216;SDS011;5152;59.674;16.838;2023-06-05T12:04:31;6.63;;;1.50;;
10216;SDS011;5152;59.674;16.838;2023-06-05T12:06:59;2.45;;;1.17;;
10216;SDS011;5152;59.674;16.838;2023-06-05T12:09:29;2.75;;;1.20;;
10216;SDS011;5152;59.674;16.838;2023-06-05T12:12:06;1.27;;;1.17;;
10216;SDS011;5152;59.674;16.838;2023-06-05T12:14:33;2.30;;;1.33;;
10216;SDS011;5152;59.674;16.838;2023-06-05T12:17:07;2.95;;;1.17;;
10216;SDS011;5152;59.674;16.838;2023-06-05T12:19:35;1.50;;;1.40;;
10216;SDS011;5152;59.674;16.838;2023-06-05T12:22:04;3.35;;;1.33;;
10216;SDS011;5152;59.674;16.838;2023-06-05T12:24:32;2.72;;;1.25;;
10216;SDS011;5152;59.674;16.838;2023-06-05T12:26:59;1.40;;;1.30;;
10216;SDS011;5152;59.674;16.838;2023-06-05T12:29:27;1.92;;;1.27;;
10216;SDS011;5152;59.674;16.838;2023-06-05T12:31:55;1.52;;;1.40;;
10216;SDS011;5152;59.674;16.838;2023-06-05T12:37:07;4.57;;;1.42;;
10216;SDS011;5152;59.674;16.838;2023-06-05T12:39:34;5.60;;;1.50;;
10216;SDS011;5152;59.674;16.838;2023-06-05T12:42:01;2.67;;;1.42;;
10216;SDS011;5152;59.674;16.838;2023-06-05T12:44:28;3.47;;;1.42;;
10216;SDS011;5152;59.674;16.838;2023-06-05T12:46:55;2.45;;;1.30;;
10216;SDS011;5152;59.674;16.838;2023-06-05T12:49:23;1.77;;;1.63;;
10216;SDS011;5152;59.674;16.838;2023-06-05T12:51:50;2.17;;;1.35;;
10216;SDS011;5152;59.674;16.838;2023-06-05T12:54:18;4.38;;;1.45;;
10216;SDS011;5152;59.674;16.838;2023-06-05T12:56:45;1.23;;;1.13;;
10216;SDS011;5152;59.674;16.838;2023-06-05T12:59:13;1.75;;;1.50;;
10216;SDS011;5152;59.674;16.838;2023-06-05T13:01:40;2.15;;;1.20;;
10216;SDS011;5152;59.674;16.838;2023-06-05T13:04:07;6.53;;;1.33;;
10216;SDS011;5152;59.674;16.838;2023-06-05T13:06:33;2.00;;;1.35;;
10216;SDS011;5152;59.674;16.838;2023-06-05T13:09:01;4.97;;;1.40;;
10216;SDS011;5152;59.674;16.838;2023-06-05T13:11:30;2.05;;;1.60;;
10216;SDS011;5152;59.674;16.838;2023-06-05T13:13:57;1.75;;;1.40;;
10216;SDS011;5152;59.674;16.838;2023-06-05T13:16:25;3.53;;;1.17;;
10216;SDS011;5152;59.674;16.838;2023-06-05T13:18:52;2.13;;;1.38;;
10216;SDS011;5152;59.674;16.838;2023-06-05T13:21:19;1.58;;;1.48;;
10216;SDS011;5152;59.674;16.838;2023-06-05T13:23:45;1.90;;;1.33;;
10216;SDS011;5152;59.674;16.838;2023-06-05T13:26:12;2.72;;;1.70;;
10216;SDS011;5152;59.674;16.838;2023-06-05T13:28:41;1.60;;;1.40;;
10216;SDS011;5152;59.674;16.838;2023-06-05T13:31:09;1.40;;;1.30;;
10216;SDS011;5152;59.674;16.838;2023-06-05T13:33:36;5.07;;;1.55;;
10216;SDS011;5152;59.674;16.838;2023-06-05T13:36:03;1.40;;;1.30;;
10216;SDS011;5152;59.674;16.838;2023-06-05T13:38:30;1.30;;;1.13;;
10216;SDS011;5152;59.674;16.838;2023-06-05T13:40:57;5.32;;;1.70;;
10216;SDS011;5152;59.674;16.838;2023-06-05T13:43:24;2.30;;;1.27;;
10216;SDS011;5152;59.674;16.838;2023-06-05T13:45:52;4.57;;;1.30;;
10216;SDS011;5152;59.674;16.838;2023-06-05T13:48:19;2.70;;;1.30;;
10216;SDS011;5152;59.674;16.838;2023-06-05T13:50:45;1.63;;;1.52;;
10216;SDS011;5152;59.674;16.838;2023-06-05T13:53:12;3.63;;;1.20;;
10216;SDS011;5152;59.674;16.838;2023-06-05T13:55:39;4.07;;;1.45;;
10216;SDS011;5152;59.674;16.838;2023-06-05T13:58:06;3.08;;;1.30;;
10216;SDS011;5152;59.674;16.838;2023-06-05T14:00:34;2.50;;;1.20;;
10216;SDS011;5152;59.674;16.838;2023-06-05T14:03:02;1.58;;;1.38;;
10216;SDS011;5152;59.674;16.838;2023-06-05T14:05:29;3.67;;;1.50;;
10216;SDS011;5152;59.674;16.838;2023-06-05T14:07:57;1.95;;;1.42;;
10216;SDS011;5152;59.674;16.838;2023-06-05T14:10:24;1.45;;;1.35;;
10216;SDS011;5152;59.674;16.838;2023-06-05T14:12:52;2.90;;;1.50;;
10216;SDS011;5152;59.674;16.838;2023-06-05T14:15:20;2.60;;;1.88;;
10216;SDS011;5152;59.674;16.838;2023-06-05T14:17:48;19.40;;;2.63;;
10216;SDS011;5152;59.674;16.838;2023-06-05T14:20:17;4.47;;;1.52;;
10216;SDS011;5152;59.674;16.838;2023-06-05T14:22:44;4.63;;;2.10;;
10216;SDS011;5152;59.674;16.838;2023-06-05T14:25:11;5.63;;;1.95;;
10216;SDS011;5152;59.674;16.838;2023-06-05T14:27:38;3.78;;;2.10;;
10216;SDS011;5152;59.674;16.838;2023-06-05T14:30:05;2.17;;;1.70;;
10216;SDS011;5152;59.674;16.838;2023-06-05T14:32:34;2.80;;;2.17;;
10216;SDS011;5152;59.674;16.838;2023-06-05T14:35:01;4.30;;;1.98;;
10216;SDS011;5152;59.674;16.838;2023-06-05T14:37:29;5.15;;;2.33;;
10216;SDS011;5152;59.674;16.838;2023-06-05T14:39:56;3.67;;;2.42;;
10216;SDS011;5152;59.674;16.838;2023-06-05T14:42:23;8.55;;;3.05;;
10216;SDS011;5152;59.674;16.838;2023-06-05T14:44:50;9.27;;;3.70;;
10216;SDS011;5152;59.674;16.838;2023-06-05T14:47:17;14.15;;;3.88;;
10216;SDS011;5152;59.674;16.838;2023-06-05T14:49:44;2.53;;;1.85;;
10216;SDS011;5152;59.674;16.838;2023-06-05T14:52:11;6.32;;;2.70;;
10216;SDS011;5152;59.674;16.838;2023-06-05T14:54:39;3.28;;;2.00;;
10216;SDS011;5152;59.674;16.838;2023-06-05T14:57:06;2.45;;;1.85;;
10216;SDS011;5152;59.674;16.838;2023-06-05T14:59:33;6.93;;;2.53;;
10216;SDS011;5152;59.674;16.838;2023-06-05T15:02:00;5.20;;;2.80;;
10216;SDS011;5152;59.674;16.838;2023-06-05T15:04:27;3.00;;;2.15;;